Time,TemperatureF,DewpointF,PressureIn,WindDirection,WindDirectionDegrees,WindSpeedMPH,WindSpeedGustMPH,Humidity,HourlyPrecipIn,Conditions,Clouds,dailyrainin,SoftwareType,DateUTC
2013-04-16 01:00:00,33.0,12.0,-100.00,North,-999,0.0,6.0,41,-99.99,,,-99.99,,2013-04-16 08:00:00,
2013-04-16 02:00:00,32.0,11.0,-100.00,North,-999,1.0,3.0,41,-99.99,,,-99.99,,2013-04-16 09:00:00,
2013-04-16 03:00:00,31.0,10.0,-100.00,North,-999,2.0,6.0,40,-99.99,,,-99.99,,2013-04-16 10:00:00,
2013-04-16 05:00:00,30.0,10.0,-100.00,North,-999,2.0,5.0,42,-99.99,,,-99.99,,2013-04-16 12:00:00,
2013-04-16 06:00:00,29.0,11.0,-100.00,North,-999,1.0,5.0,46,-99.99,,,-99.99,,2013-04-16 13:00:00,
2013-04-16 07:00:00,30.0,12.0,-100.00,North,-999,2.0,3.0,46,-99.99,,,-99.99,,2013-04-16 14:00:00,
2013-04-16 08:00:00,36.0,15.0,-100.00,North,-999,1.0,7.0,41,-99.99,,,-99.99,,2013-04-16 15:00:00,
2013-04-16 09:00:00,39.0,14.0,-100.00,North,-999,5.0,13.0,35,-99.99,,,-99.99,,2013-04-16 16:00:00,
2013-04-16 10:00:00,40.0,14.0,-100.00,North,-999,5.0,15.0,34,-99.99,,,-99.99,,2013-04-16 17:00:00,
2013-04-16 11:00:00,42.0,15.0,-100.00,North,-999,6.0,12.0,33,-99.99,,,-99.99,,2013-04-16 18:00:00,
2013-04-16 12:00:00,43.0,15.0,-100.00,North,-999,3.0,16.0,31,-99.99,,,-99.99,,2013-04-16 19:00:00,
2013-04-16 14:00:00,43.0,14.0,-100.00,North,-999,6.0,12.0,30,-99.99,,,-99.99,,2013-04-16 21:00:00,
2013-04-16 15:00:00,44.0,15.0,-100.00,North,-999,2.0,9.0,30,-99.99,,,-99.99,,2013-04-16 22:00:00,
2013-04-16 17:00:00,44.0,15.0,-100.00,North,-999,1.0,6.0,30,-99.99,,,-99.99,,2013-04-17 00:00:00,
2013-04-16 17:02:00,44.0,14.0,-100.00,North,-999,3.0,6.0,29,-99.99,,,-99.99,,2013-04-17 00:02:00,
2013-04-16 17:12:00,44.0,14.0,-100.00,North,-999,3.0,6.0,29,-99.99,,,-99.99,,2013-04-17 00:12:00,
2013-04-16 18:00:00,44.0,15.0,-100.00,North,-999,6.0,12.0,30,-99.99,,,-99.99,,2013-04-17 01:00:00,
2013-04-16 19:00:00,42.0,15.0,-100.00,North,-999,2.0,7.0,33,-99.99,,,-99.99,,2013-04-17 02:00:00,
2013-04-16 20:00:00,38.0,15.0,-100.00,North,-999,1.0,2.0,38,-99.99,,,-99.99,,2013-04-17 03:00:00,
2013-04-16 23:02:00,33.0,17.0,-100.00,North,-999,2.0,3.0,51,-99.99,,,-99.99,,2013-04-17 06:02:00,